Time;durP1;ratioP1;P1;durP2;ratioP2;P2;SDS_P1;SDS_P2;PMS_P1;PMS_P2;Temp;Humidity;BMP_temperature;BMP_pressure;BME280_temperature;BME280_humidity;BME280_pressure;Samples;Min_cycle;Max_cycle;Signal;HPM_P1;HPM_P2
2023/10/21 00:02:09;;;;;;;54.85;33.13;;;;;;;13.30;89.57;97900.84;4902376;28;96909;-80
2023/10/21 00:04:35;;;;;;;57.08;33.65;;;;;;;13.36;89.34;97907.41;4918168;28;97476;-80
2023/10/21 00:07:00;;;;;;;59.47;32.40;;;;;;;13.25;89.29;97896.91;4918430;28;97628;-81
2023/10/21 00:09:26;;;;;;;57.47;31.20;;;;;;;13.32;89.40;97911.25;4918155;28;97685;-80
2023/10/21 00:11:51;;;;;;;58.60;32.05;;;;;;;13.11;89.27;97869.06;4934641;28;97436;-79
2023/10/21 00:14:20;;;;;;;53.72;29.08;;;;;;;13.27;88.82;97874.75;4933336;28;97923;-80
2023/10/21 00:16:46;;;;;;;50.67;30.13;;;;;;;13.30;88.39;97882.41;4902123;28;101243;-82
2023/10/21 00:19:11;;;;;;;57.35;31.45;;;;;;;13.19;88.68;97871.91;4917873;28;96710;-80
2023/10/21 00:21:38;;;;;;;52.28;30.63;;;;;;;13.16;88.50;97866.88;4934125;28;97062;-79
2023/10/21 00:24:04;;;;;;;56.15;31.65;;;;;;;13.18;88.16;97864.09;4917658;28;100936;-80
2023/10/21 00:26:29;;;;;;;50.08;27.30;;;;;;;13.05;88.37;97859.88;4934102;28;97347;-79
2023/10/21 00:28:56;;;;;;;53.38;28.40;;;;;;;13.13;87.60;97873.25;4918464;28;96908;-80
2023/10/21 00:31:21;;;;;;;61.97;31.45;;;;;;;13.18;87.76;97888.69;4917458;28;97102;-80
2023/10/21 00:33:47;;;;;;;54.72;29.70;;;;;;;13.14;87.31;97887.25;4934095;28;98094;-80
2023/10/21 00:36:13;;;;;;;52.83;28.67;;;;;;;13.03;87.46;97872.34;4901287;28;101583;-79
2023/10/21 00:38:38;;;;;;;52.00;28.38;;;;;;;13.11;87.66;97895.41;4917357;28;97952;-79
2023/10/21 00:41:04;;;;;;;53.10;28.75;;;;;;;13.11;87.15;97893.59;4917931;28;97324;-80
2023/10/21 00:43:38;;;;;;;53.95;28.30;;;;;;;13.04;87.20;97897.72;4917759;28;97979;-79
2023/10/21 00:46:11;;;;;;;54.05;30.08;;;;;;;13.08;87.07;97925.44;4933943;28;98469;-80
2023/10/21 00:48:38;;;;;;;53.50;28.90;;;;;;;13.05;87.14;97925.72;4933859;28;97266;-80
2023/10/21 00:51:03;;;;;;;57.60;31.05;;;;;;;13.03;87.11;97918.88;4917951;28;97205;-79
2023/10/21 00:53:31;;;;;;;55.13;29.63;;;;;;;12.98;87.47;97908.75;4933836;28;98517;-79
2023/10/21 00:55:58;;;;;;;54.10;28.67;;;;;;;12.82;86.89;97890.72;4905332;28;100346;-80
2023/10/21 00:58:25;;;;;;;51.17;28.25;;;;;;;12.87;86.93;97896.47;4901692;28;97165;-80
2023/10/21 01:00:51;;;;;;;64.32;32.00;;;;;;;12.97;87.08;97930.75;4934107;28;96877;-80
2023/10/21 01:03:17;;;;;;;61.90;31.50;;;;;;;12.95;86.93;97934.50;4900725;28;101390;-80
2023/10/21 01:05:42;;;;;;;68.57;30.85;;;;;;;12.96;86.93;97944.06;4900445;28;100687;-80
2023/10/21 01:08:08;;;;;;;59.80;31.73;;;;;;;13.04;86.36;97946.91;4933275;28;96749;-80
2023/10/21 01:10:33;;;;;;;56.60;30.48;;;;;;;12.76;86.53;97911.47;4917837;28;97117;-79
2023/10/21 01:12:59;;;;;;;63.92;31.75;;;;;;;12.95;86.92;97963.47;4916688;28;101741;-80
2023/10/21 01:15:25;;;;;;;61.10;31.58;;;;;;;12.81;86.78;97954.88;4933576;28;98472;-81
2023/10/21 01:17:50;;;;;;;67.00;30.55;;;;;;;12.92;86.75;97982.97;4933564;28;96767;-79
2023/10/21 01:20:19;;;;;;;69.43;31.90;;;;;;;12.79;86.54;97966.50;4918053;28;96928;-79
2023/10/21 01:22:44;;;;;;;70.00;32.92;;;;;;;12.86;86.24;97978.22;4906891;28;100913;-79
2023/10/21 01:25:11;;;;;;;63.63;31.77;;;;;;;12.90;86.42;97996.25;4933213;28;98919;-79
2023/10/21 01:27:36;;;;;;;85.38;32.83;;;;;;;12.83;86.75;97991.63;4916969;28;97252;-79
2023/10/21 01:30:05;;;;;;;63.97;29.45;;;;;;;12.80;86.57;97981.31;4901461;28;96917;-80
2023/10/21 01:32:32;;;;;;;66.20;29.38;;;;;;;12.76;86.18;97986.00;4916951;28;101892;-79
2023/10/21 01:34:58;;;;;;;47.67;27.85;;;;;;;12.82;86.19;97992.56;4900927;28;101195;-79
2023/10/21 01:37:23;;;;;;;51.78;27.63;;;;;;;12.81;86.13;98002.25;4900610;28;97057;-79
2023/10/21 01:39:49;;;;;;;54.50;27.10;;;;;;;12.75;85.83;97996.66;4898654;28;97254;-79
2023/10/21 01:42:14;;;;;;;49.55;27.92;;;;;;;12.76;85.51;98006.22;4909789;28;101856;-80
2023/10/21 01:44:40;;;;;;;48.45;26.70;;;;;;;12.73;85.98;97998.56;4910398;28;101625;-79
2023/10/21 01:47:06;;;;;;;45.88;26.77;;;;;;;12.78;85.71;98007.78;4897908;28;96843;-80
2023/10/21 01:49:32;;;;;;;52.55;25.42;;;;;;;12.81;85.64;98010.16;4913731;28;96997;-80
2023/10/21 01:51:58;;;;;;;43.65;24.33;;;;;;;12.78;85.25;98009.56;4896858;28;101511;-79
2023/10/21 01:54:24;;;;;;;46.75;25.05;;;;;;;12.76;85.45;97996.53;4896154;28;101414;-80
2023/10/21 01:56:49;;;;;;;45.10;24.58;;;;;;;12.74;85.23;98009.00;4912802;28;96866;-79
2023/10/21 01:59:15;;;;;;;41.67;23.48;;;;;;;12.76;84.93;98014.13;4913391;28;96876;-79
2023/10/21 02:01:41;;;;;;;41.33;24.73;;;;;;;12.73;85.31;98012.56;4880846;28;101358;-79
2023/10/21 02:04:06;;;;;;;44.17;24.70;;;;;;;12.74;85.02;98014.25;4876846;28;101750;-81
2023/10/21 02:06:32;;;;;;;42.72;25.45;;;;;;;12.73;85.38;98017.00;4893511;28;97183;-80
2023/10/21 02:08:57;;;;;;;42.83;23.50;;;;;;;12.71;84.74;98018.91;4913705;28;96933;-79
2023/10/21 02:11:26;;;;;;;42.55;24.77;;;;;;;12.61;85.08;98024.06;4896627;28;101222;-79
2023/10/21 02:13:51;;;;;;;41.78;24.52;;;;;;;12.70;85.29;98044.41;4913421;28;97588;-80
2023/10/21 02:16:18;;;;;;;44.50;25.02;;;;;;;12.66;85.13;98051.69;4909710;28;96846;-79
2023/10/21 02:18:43;;;;;;;43.92;23.27;;;;;;;12.61;84.98;98045.94;4911871;28;97006;-79
2023/10/21 02:21:09;;;;;;;41.20;23.38;;;;;;;12.50;84.80;98035.44;4881059;28;101362;-79
2023/10/21 02:23:34;;;;;;;39.38;21.98;;;;;;;12.51;84.98;98031.00;4880772;28;100897;-80
2023/10/21 02:26:02;;;;;;;47.03;24.65;;;;;;;12.60;85.19;98049.56;4897628;28;97231;-80
2023/10/21 02:28:27;;;;;;;40.38;23.35;;;;;;;12.58;84.74;98037.47;4897103;28;97033;-80
2023/10/21 02:30:53;;;;;;;39.13;21.92;;;;;;;12.52;84.67;98024.78;4896803;28;101025;-81
2023/10/21 02:33:18;;;;;;;43.67;23.13;;;;;;;12.44;84.57;98031.47;4881091;28;101467;-80
2023/10/21 02:35:45;;;;;;;35.72;22.25;;;;;;;12.58;84.63;98064.63;4896817;28;96861;-81
2023/10/21 02:38:10;;;;;;;44.35;22.38;;;;;;;12.49;84.87;98059.25;4897223;28;96955;-80
2023/10/21 02:40:40;;;;;;;36.42;21.00;;;;;;;12.65;84.75;98083.38;4923842;28;98151;-81
2023/10/21 02:43:06;;;;;;;39.70;21.98;;;;;;;12.67;84.14;98071.78;4932104;28;98218;-80
2023/10/21 02:45:31;;;;;;;35.75;22.10;;;;;;;12.53;84.25;98048.34;4932440;28;96781;-80
2023/10/21 02:47:57;;;;;;;32.15;20.98;;;;;;;12.61;84.65;98063.53;4916010;28;97167;-80
2023/10/21 02:50:22;;;;;;;34.58;21.65;;;;;;;12.57;84.47;98059.50;4916011;28;101650;-80
2023/10/21 02:52:51;;;;;;;34.13;19.60;;;;;;;12.57;84.24;98059.50;4903434;28;97789;-80
2023/10/21 02:55:16;;;;;;;31.02;20.00;;;;;;;12.43;84.20;98034.25;4900309;28;96810;-80
2023/10/21 02:57:42;;;;;;;29.52;19.25;;;;;;;12.57;84.40;98060.31;4932175;28;96908;-80
2023/10/21 03:00:10;;;;;;;33.70;19.58;;;;;;;12.42;84.40;98033.41;4916013;28;101250;-81
2023/10/21 03:02:37;;;;;;;31.00;19.92;;;;;;;12.53;84.26;98032.56;4915264;28;101947;-79
2023/10/21 03:05:05;;;;;;;27.52;18.83;;;;;;;12.44;84.09;98017.50;4916194;28;96748;-80
2023/10/21 03:07:30;;;;;;;28.42;19.63;;;;;;;12.52;84.31;98051.94;4898110;28;96939;-81
2023/10/21 03:09:56;;;;;;;31.90;19.27;;;;;;;12.40;84.76;98040.56;4928459;28;98109;-80
2023/10/21 03:12:22;;;;;;;29.95;19.73;;;;;;;12.46;84.46;98044.53;4930964;28;97918;-80
2023/10/21 03:14:47;;;;;;;29.60;20.77;;;;;;;12.34;84.52;98034.97;4930995;28;97443;-79
2023/10/21 03:17:14;;;;;;;30.45;20.05;;;;;;;12.47;84.35;98054.09;4915459;28;97003;-80
2023/10/21 03:19:39;;;;;;;29.35;20.00;;;;;;;12.46;84.33;98052.41;4915289;28;101361;-80
2023/10/21 03:22:05;;;;;;;31.52;21.10;;;;;;;12.37;84.03;98038.19;4903766;28;101396;-79
2023/10/21 03:24:30;;;;;;;31.80;20.15;;;;;;;12.52;84.07;98054.56;4932085;28;96756;-79
2023/10/21 03:26:56;;;;;;;30.58;20.63;;;;;;;12.42;84.43;98036.03;4899579;28;97953;-79
2023/10/21 03:29:21;;;;;;;26.30;19.13;;;;;;;12.45;84.41;98053.38;4931005;28;101609;-79
2023/10/21 03:31:47;;;;;;;27.02;19.70;;;;;;;12.21;84.32;98020.09;4915141;28;98380;-79
2023/10/21 03:34:12;;;;;;;31.40;20.70;;;;;;;12.20;84.58;98057.06;4914890;28;96813;-80
2023/10/21 03:36:38;;;;;;;32.33;20.00;;;;;;;12.38;84.85;98079.31;4913946;28;97179;-80
2023/10/21 03:39:05;;;;;;;30.65;19.27;;;;;;;12.34;84.88;98062.09;4915506;28;98209;-79
2023/10/21 03:41:31;;;;;;;29.65;20.05;;;;;;;12.33;83.70;98054.31;4951421;28;97691;-79
2023/10/21 03:43:57;;;;;;;28.42;19.48;;;;;;;12.22;84.15;98042.00;4934845;28;98011;-79
2023/10/21 03:46:23;;;;;;;29.92;19.48;;;;;;;12.24;84.15;98050.59;4934956;28;96884;-81
2023/10/21 03:48:49;;;;;;;29.58;20.20;;;;;;;12.20;84.03;98050.00;4918414;28;97484;-79
2023/10/21 03:51:15;;;;;;;31.65;19.95;;;;;;;12.19;84.49;98056.22;4934260;28;98456;-79
2023/10/21 03:53:41;;;;;;;29.25;18.88;;;;;;;12.35;84.38;98081.34;4918752;28;96971;-79
2023/10/21 03:56:08;;;;;;;26.02;17.75;;;;;;;12.37;84.89;98084.72;4902005;28;96865;-79
2023/10/21 03:58:34;;;;;;;26.52;18.67;;;;;;;12.24;84.66;98050.59;4934356;28;97628;-81
2023/10/21 04:01:00;;;;;;;26.73;18.45;;;;;;;12.40;84.62;98066.06;4917168;28;97527;-79
2023/10/21 04:03:28;;;;;;;27.95;18.52;;;;;;;12.29;84.74;98048.44;4917114;28;96760;-80
2023/10/21 04:05:54;;;;;;;30.83;19.30;;;;;;;12.34;84.36;98067.34;4933404;28;96937;-80
2023/10/21 04:08:21;;;;;;;32.53;20.52;;;;;;;12.18;84.86;98074.75;4936431;28;101126;-79
2023/10/21 04:10:46;;;;;;;31.38;19.90;;;;;;;12.22;84.98;98078.81;4919313;28;98020;-79
2023/10/21 04:13:12;;;;;;;28.52;19.73;;;;;;;12.21;85.49;98087.66;4919320;28;96861;-79
2023/10/21 04:15:38;;;;;;;30.45;19.77;;;;;;;12.33;85.22;98072.72;4920394;28;96910;-80
2023/10/21 04:18:03;;;;;;;35.13;22.45;;;;;;;12.28;86.07;98059.09;4929394;28;97574;-80
2023/10/21 04:20:31;;;;;;;47.47;27.98;;;;;;;12.14;85.76;98075.94;4914455;28;98097;-80
2023/10/21 04:22:58;;;;;;;43.85;28.95;;;;;;;12.15;86.25;98086.31;4923019;28;96864;-81
2023/10/21 04:25:23;;;;;;;45.35;28.63;;;;;;;12.17;86.16;98115.97;4950466;28;97080;-81
2023/10/21 04:27:49;;;;;;;44.47;30.58;;;;;;;12.23;85.56;98119.94;4921066;28;101143;-79
2023/10/21 04:30:15;;;;;;;48.58;31.38;;;;;;;12.30;85.36;98142.19;4930088;28;97390;-79
2023/10/21 04:32:41;;;;;;;40.45;26.85;;;;;;;12.21;85.61;98153.41;4912257;28;97328;-78
2023/10/21 04:35:08;;;;;;;44.05;29.25;;;;;;;12.12;86.23;98146.22;4920417;28;97164;-80
2023/10/21 04:37:33;;;;;;;43.45;27.83;;;;;;;12.17;86.71;98146.72;4905793;28;101125;-81
2023/10/21 04:39:59;;;;;;;49.20;29.02;;;;;;;12.17;86.30;98154.59;4908642;28;101143;-79
2023/10/21 04:42:26;;;;;;;40.65;28.95;;;;;;;12.19;86.63;98160.59;4908182;28;97347;-79
2023/10/21 04:44:52;;;;;;;43.05;29.15;;;;;;;12.07;86.18;98130.78;4936189;28;97317;-79
2023/10/21 04:47:17;;;;;;;48.45;29.38;;;;;;;12.20;85.58;98152.56;4916383;28;101245;-79
2023/10/21 04:49:43;;;;;;;42.88;29.42;;;;;;;12.35;85.65;98171.63;4932322;28;97414;-79
2023/10/21 04:52:14;;;;;;;51.85;31.90;;;;;;;12.22;86.49;98166.47;4917393;28;96809;-79
2023/10/21 04:54:41;;;;;;;50.25;31.80;;;;;;;12.24;86.17;98192.63;4916761;28;96903;-80
2023/10/21 04:57:07;;;;;;;48.10;31.08;;;;;;;12.30;85.51;98186.06;4917890;28;100804;-79
2023/10/21 04:59:33;;;;;;;47.40;29.73;;;;;;;12.32;86.28;98197.34;4908953;28;97869;-79
2023/10/21 05:01:58;;;;;;;46.10;29.60;;;;;;;12.33;85.71;98193.75;4912024;28;97156;-80
2023/10/21 05:04:24;;;;;;;46.75;29.58;;;;;;;12.34;86.25;98198.06;4922547;28;97159;-79
2023/10/21 05:06:50;;;;;;;42.90;28.40;;;;;;;12.41;86.08;98201.91;4932152;28;98089;-79
2023/10/21 05:09:16;;;;;;;48.22;30.42;;;;;;;12.45;85.48;98209.47;4917363;28;100803;-79
2023/10/21 05:11:42;;;;;;;51.00;29.80;;;;;;;12.40;85.28;98213.38;4898010;28;96808;-79
2023/10/21 05:14:08;;;;;;;43.20;28.65;;;;;;;12.18;85.67;98178.16;4931172;28;96946;-79
2023/10/21 05:16:33;;;;;;;42.83;27.33;;;;;;;12.24;85.92;98198.72;4932735;28;97596;-78
2023/10/21 05:18:59;;;;;;;49.28;28.48;;;;;;;12.40;86.04;98210.75;4929808;28;99109;-80
2023/10/21 05:21:24;;;;;;;46.05;26.63;;;;;;;12.36;86.27;98199.63;4917008;28;96785;-79
2023/10/21 05:23:50;;;;;;;44.17;27.38;;;;;;;12.38;86.14;98194.25;4933479;28;96904;-79
2023/10/21 05:26:18;;;;;;;41.47;26.50;;;;;;;12.13;85.82;98166.28;4916183;28;97529;-79
2023/10/21 05:28:44;;;;;;;39.85;26.05;;;;;;;12.34;85.90;98219.94;4916506;28;101493;-82
2023/10/21 05:31:10;;;;;;;38.45;25.23;;;;;;;12.30;85.96;98234.25;4914514;28;96939;-79
2023/10/21 05:33:35;;;;;;;40.75;24.98;;;;;;;12.33;86.43;98236.66;4916469;28;97118;-79
2023/10/21 05:36:01;;;;;;;42.33;24.30;;;;;;;12.45;86.23;98266.53;4915562;28;100206;-79
2023/10/21 05:38:26;;;;;;;42.63;26.25;;;;;;;12.29;85.77;98240.50;4913734;28;97401;-79
2023/10/21 05:40:52;;;;;;;36.92;23.92;;;;;;;12.30;85.56;98242.16;4901136;28;98042;-80
2023/10/21 05:43:17;;;;;;;37.95;24.02;;;;;;;12.42;85.62;98251.78;4907906;28;97011;-79
2023/10/21 05:45:43;;;;;;;46.17;26.52;;;;;;;12.47;84.84;98275.13;4901278;28;101609;-80
2023/10/21 05:48:12;;;;;;;33.58;24.50;;;;;;;12.40;85.42;98280.00;4924712;28;97543;-79
2023/10/21 05:50:37;;;;;;;34.65;23.15;;;;;;;12.39;85.11;98282.72;4913861;28;96872;-79
2023/10/21 05:53:06;;;;;;;37.88;24.02;;;;;;;12.43;85.16;98300.81;4913875;28;97079;-79
2023/10/21 05:55:32;;;;;;;33.70;22.52;;;;;;;12.50;84.76;98305.63;4906634;28;97626;-79
2023/10/21 05:57:57;;;;;;;36.20;23.35;;;;;;;12.26;84.11;98260.94;4912632;28;97346;-79
2023/10/21 06:00:23;;;;;;;38.72;22.50;;;;;;;12.46;84.44;98297.13;4910973;28;97253;-80
2023/10/21 06:02:49;;;;;;;38.70;23.13;;;;;;;12.38;84.62;98281.06;4932562;28;97249;-79
2023/10/21 06:05:15;;;;;;;32.15;22.25;;;;;;;12.43;83.99;98285.03;4899767;28;101391;-79
2023/10/21 06:07:41;;;;;;;35.78;23.17;;;;;;;12.43;84.06;98289.47;4908758;28;100974;-79
2023/10/21 06:10:07;;;;;;;33.95;21.55;;;;;;;12.44;83.69;98278.81;4932675;28;96815;-79
2023/10/21 06:12:33;;;;;;;36.28;22.58;;;;;;;12.66;83.22;98309.66;4929220;28;97271;-78
2023/10/21 06:14:59;;;;;;;30.60;20.95;;;;;;;12.78;82.88;98312.31;4915642;28;101694;-79
2023/10/21 06:17:25;;;;;;;30.58;21.25;;;;;;;12.89;82.18;98307.09;4915207;28;101437;-79
2023/10/21 06:19:52;;;;;;;34.10;21.38;;;;;;;13.03;81.70;98316.56;4899789;28;97216;-79
2023/10/21 06:22:18;;;;;;;37.58;21.65;;;;;;;13.09;81.16;98316.97;4921443;28;96981;-79
2023/10/21 06:24:45;;;;;;;31.17;21.10;;;;;;;13.00;80.57;98299.22;4942376;28;97949;-79
2023/10/21 06:27:12;;;;;;;30.05;20.27;;;;;;;13.16;80.05;98327.03;4932787;28;98284;-80
2023/10/21 06:29:37;;;;;;;32.95;20.45;;;;;;;13.29;79.78;98336.56;4931430;28;96852;-78
2023/10/21 06:32:05;;;;;;;34.05;22.48;;;;;;;13.36;79.42;98347.47;4915591;28;97091;-79
2023/10/21 06:34:30;;;;;;;32.70;21.02;;;;;;;13.33;79.73;98360.88;4930912;28;97609;-80
2023/10/21 06:36:56;;;;;;;33.53;19.92;;;;;;;13.33;79.57;98359.06;4915585;28;101682;-78
2023/10/21 06:39:21;;;;;;;30.00;20.73;;;;;;;13.31;79.89;98355.69;4909594;28;97161;-80
2023/10/21 06:41:47;;;;;;;28.70;20.13;;;;;;;13.43;79.58;98371.53;4947351;28;97170;-82
2023/10/21 06:44:16;;;;;;;33.53;20.65;;;;;;;13.31;79.89;98375.94;4918774;28;101209;-76
2023/10/21 06:46:42;;;;;;;27.35;19.25;;;;;;;13.20;80.41;98378.53;4903263;28;101575;-76
2023/10/21 06:49:09;;;;;;;29.67;20.73;;;;;;;13.30;80.74;98377.75;4916993;28;96875;-76
2023/10/21 06:51:36;;;;;;;28.80;20.50;;;;;;;13.30;80.34;98376.91;4922511;28;97138;-77
2023/10/21 06:54:03;;;;;;;28.63;20.27;;;;;;;13.32;80.81;98385.53;4935319;28;97885;-81
2023/10/21 06:56:28;;;;;;;31.45;20.80;;;;;;;13.37;80.49;98388.66;4911440;28;100301;-78
2023/10/21 06:58:54;;;;;;;29.25;20.42;;;;;;;13.40;80.58;98383.16;4927054;28;97325;-76
2023/10/21 07:01:19;;;;;;;30.85;20.92;;;;;;;13.49;80.24;98394.78;4930429;28;96974;-76
2023/10/21 07:03:45;;;;;;;36.60;23.08;;;;;;;13.51;79.80;98379.69;4914542;28;99641;-75
2023/10/21 07:06:11;;;;;;;36.65;24.05;;;;;;;13.62;79.33;98402.63;4927651;28;97910;-76
2023/10/21 07:08:37;;;;;;;37.72;23.45;;;;;;;13.78;79.11;98406.56;4946102;28;96773;-77
2023/10/21 07:11:03;;;;;;;35.42;23.25;;;;;;;13.93;78.88;98424.78;4924364;28;97780;-80
2023/10/21 07:13:29;;;;;;;35.00;24.13;;;;;;;13.90;78.42;98420.59;4910167;28;98232;-76
2023/10/21 07:15:54;;;;;;;38.90;24.60;;;;;;;13.91;78.67;98442.56;4932222;28;97450;-77
2023/10/21 07:18:20;;;;;;;39.55;23.63;;;;;;;13.78;79.06;98425.00;4924165;28;96869;-78
2023/10/21 07:20:46;;;;;;;29.88;22.88;;;;;;;13.66;79.21;98399.59;4926789;28;96828;-79
2023/10/21 07:23:14;;;;;;;34.40;24.08;;;;;;;13.88;78.60;98429.59;4940135;28;97841;-80
2023/10/21 07:25:41;;;;;;;37.08;24.77;;;;;;;13.77;78.30;98418.06;4913867;28;97646;-80
2023/10/21 07:28:07;;;;;;;36.05;24.20;;;;;;;13.81;79.22;98461.69;4920802;28;97596;-79
2023/10/21 07:30:33;;;;;;;35.80;25.55;;;;;;;15.60;74.45;98464.97;4936088;28;96817;-79
2023/10/21 07:33:00;;;;;;;33.60;24.90;;;;;;;18.04;66.94;98456.59;4913216;28;98829;-77
2023/10/21 07:35:26;;;;;;;35.33;21.60;;;;;;;18.59;65.08;98444.31;4933405;28;97406;-77
2023/10/21 07:37:54;;;;;;;31.45;21.88;;;;;;;19.26;62.58;98453.69;4911757;28;97969;-78
2023/10/21 07:40:20;;;;;;;30.17;20.75;;;;;;;19.14;61.79;98453.09;4913982;28;96989;-76
2023/10/21 07:42:46;;;;;;;29.00;19.52;;;;;;;18.24;62.62;98436.13;4915018;28;97384;-79
2023/10/21 07:45:14;;;;;;;26.83;19.55;;;;;;;17.76;65.00;98473.38;4936971;28;97936;-76
2023/10/21 07:47:41;;;;;;;26.42;20.13;;;;;;;17.24;66.78;98475.50;4934151;28;97984;-76
2023/10/21 07:50:07;;;;;;;30.50;20.85;;;;;;;16.90;67.45;98489.13;4916487;28;97105;-77
2023/10/21 07:52:36;;;;;;;29.80;20.98;;;;;;;18.69;63.54;98477.00;4914515;28;101400;-78
2023/10/21 07:55:03;;;;;;;26.20;19.15;;;;;;;23.62;51.20;98482.22;4936745;28;97583;-78
2023/10/21 07:57:29;;;;;;;21.35;16.88;;;;;;;26.84;44.29;98461.06;4909054;28;97597;-76
2023/10/21 07:59:54;;;;;;;24.00;16.92;;;;;;;28.88;39.02;98484.69;4932313;28;96904;-76
2023/10/21 08:02:21;;;;;;;20.13;16.02;;;;;;;30.82;36.78;98487.56;4925195;28;98091;-76
2023/10/21 08:04:47;;;;;;;20.10;15.60;;;;;;;32.41;33.10;98483.50;4920040;28;97905;-79
2023/10/21 08:07:12;;;;;;;17.42;14.50;;;;;;;33.85;31.52;98478.94;4930694;28;96806;-80
2023/10/21 08:09:38;;;;;;;17.02;14.52;;;;;;;34.94;29.95;98470.16;4916087;28;96972;-80
2023/10/21 08:12:04;;;;;;;20.85;18.70;;;;;;;36.21;28.46;98475.16;4915352;28;98413;-81
2023/10/21 08:14:31;;;;;;;32.63;30.02;;;;;;;36.97;26.61;98491.09;4932804;28;98099;-82
2023/10/21 08:17:00;;;;;;;16.65;14.63;;;;;;;37.91;25.32;98480.06;4914951;28;96822;-81
2023/10/21 08:19:27;;;;;;;17.55;15.07;;;;;;;38.59;24.41;98498.88;4926922;28;97091;-81
2023/10/21 08:21:53;;;;;;;16.95;14.73;;;;;;;39.37;23.43;98499.09;4913171;28;98800;-82
2023/10/21 08:24:18;;;;;;;20.85;16.85;;;;;;;40.00;23.09;98484.63;4929409;28;98497;-83
2023/10/21 08:26:44;;;;;;;16.98;15.13;;;;;;;40.62;22.67;98495.81;4913889;28;97266;-81
2023/10/21 08:29:10;;;;;;;15.85;14.15;;;;;;;40.94;22.23;98499.81;4917140;28;97293;-80
2023/10/21 08:31:35;;;;;;;21.35;18.75;;;;;;;41.25;22.27;98514.03;4932170;28;97514;-81
2023/10/21 08:34:01;;;;;;;21.58;19.65;;;;;;;41.85;21.62;98507.88;4916976;28;101553;-82
2023/10/21 08:36:27;;;;;;;22.17;20.10;;;;;;;42.26;20.29;98493.38;4899087;28;96883;-81
2023/10/21 08:38:52;;;;;;;18.48;13.23;;;;;;;42.70;20.55;98503.84;4939778;28;97171;-74
2023/10/21 08:41:19;;;;;;;26.75;24.33;;;;;;;43.39;20.35;98509.28;4913854;28;98497;-72
2023/10/21 08:43:46;;;;;;;19.70;14.73;;;;;;;43.27;19.97;98528.34;4950431;28;97263;-72
2023/10/21 08:46:14;;;;;;;15.52;13.93;;;;;;;43.84;19.43;98533.34;4946282;28;97301;-72
2023/10/21 08:48:42;;;;;;;14.70;12.55;;;;;;;44.04;19.31;98523.78;4925602;28;97255;-72
2023/10/21 08:51:08;;;;;;;15.63;13.32;;;;;;;43.95;19.19;98533.97;4932315;28;97999;-71
2023/10/21 08:53:38;;;;;;;15.55;14.05;;;;;;;44.82;18.94;98529.69;4926035;28;97886;-80
2023/10/21 08:56:04;;;;;;;22.70;14.20;;;;;;;45.62;18.52;98546.97;4927837;28;97378;-76
2023/10/21 08:58:31;;;;;;;16.15;14.45;;;;;;;45.27;18.82;98529.50;4933673;28;96949;-75
2023/10/21 09:00:57;;;;;;;17.23;14.50;;;;;;;45.74;18.24;98534.41;4915192;28;101431;-76
2023/10/21 09:03:23;;;;;;;15.80;14.32;;;;;;;46.02;17.70;98540.41;4918855;28;97446;-75
2023/10/21 09:06:14;;;;;;;15.93;14.23;;;;;;;46.53;17.71;98535.06;4917619;28;97176;-76
2023/10/21 09:08:41;;;;;;;16.42;14.52;;;;;;;47.25;17.36;98544.34;4932436;28;96825;-76
2023/10/21 09:11:07;;;;;;;14.82;13.35;;;;;;;47.26;17.08;98537.63;4916796;28;101374;-77
2023/10/21 09:13:37;;;;;;;35.33;32.13;;;;;;;46.19;17.74;98539.56;4951275;28;97434;-74
2023/10/21 09:16:07;;;;;;;34.15;31.20;;;;;;;46.80;17.50;98534.63;4935621;28;96811;-74
2023/10/21 09:18:35;;;;;;;32.67;29.88;;;;;;;47.15;17.19;98545.53;4911226;28;98286;-79
2023/10/21 09:21:02;;;;;;;31.95;29.27;;;;;;;46.80;17.70;98542.94;4909704;28;101443;-80
2023/10/21 09:23:27;;;;;;;15.32;13.75;;;;;;;45.16;18.37;98539.25;4916992;28;101304;-78
2023/10/21 09:25:53;;;;;;;18.45;13.43;;;;;;;43.67;20.24;98547.03;4934114;28;97198;-81
2023/10/21 09:28:23;;;;;;;15.85;14.15;;;;;;;45.75;19.11;98545.16;4934222;28;97857;-83
2023/10/21 09:30:58;;;;;;;15.35;13.90;;;;;;;39.91;23.34;98549.50;4902842;28;101220;-83
2023/10/21 09:33:25;;;;;;;16.65;14.95;;;;;;;40.60;23.36;98554.94;4918752;28;97642;-84
2023/10/21 09:36:03;;;;;;;18.38;14.68;;;;;;;41.30;23.18;98554.38;4919136;28;97125;-82
2023/10/21 09:38:35;;;;;;;23.77;21.80;;;;;;;38.82;24.35;98561.31;4919431;28;97396;-81
2023/10/21 09:41:02;;;;;;;17.13;15.00;;;;;;;35.87;27.94;98562.78;4931586;28;97915;-80
2023/10/21 09:43:28;;;;;;;13.90;12.40;;;;;;;34.29;30.65;98568.94;4931794;28;97445;-81
2023/10/21 09:45:57;;;;;;;13.18;11.68;;;;;;;32.72;32.31;98568.34;4917562;28;97129;-81
2023/10/21 09:48:25;;;;;;;17.50;15.03;;;;;;;31.03;35.18;98572.13;4915971;28;96880;-80
2023/10/21 09:50:51;;;;;;;17.65;15.75;;;;;;;30.40;36.62;98568.59;4915423;28;100831;-80
2023/10/21 09:53:23;;;;;;;18.35;14.90;;;;;;;29.47;38.51;98565.72;4932638;28;97667;-81
2023/10/21 09:55:49;;;;;;;16.50;14.75;;;;;;;29.47;38.17;98571.94;4934120;28;98805;-81
2023/10/21 09:58:16;;;;;;;16.00;13.65;;;;;;;29.06;38.83;98592.09;4932264;28;96959;-81
2023/10/21 10:00:43;;;;;;;14.35;12.85;;;;;;;28.86;39.63;98569.69;4931083;28;99498;-81
2023/10/21 10:03:09;;;;;;;19.45;14.82;;;;;;;28.55;40.26;98592.78;4933271;28;97949;-81
2023/10/21 10:05:37;;;;;;;17.30;13.65;;;;;;;28.46;41.22;98599.44;4915804;28;96890;-81
2023/10/21 10:08:04;;;;;;;16.92;14.02;;;;;;;27.74;42.51;98591.03;4916261;28;97152;-81
2023/10/21 10:10:31;;;;;;;17.08;13.85;;;;;;;27.95;42.80;98591.94;4933080;28;97890;-81
2023/10/21 10:13:06;;;;;;;16.58;13.73;;;;;;;27.68;42.90;98594.56;4931529;28;98483;-81
2023/10/21 10:15:39;;;;;;;13.73;11.70;;;;;;;27.07;42.44;98606.13;4932987;28;97112;-82
2023/10/21 10:18:07;;;;;;;14.68;11.23;;;;;;;27.25;41.63;98602.91;4932289;28;96883;-82
2023/10/21 10:20:33;;;;;;;14.50;11.32;;;;;;;27.27;42.22;98610.81;4915475;28;99648;-81
2023/10/21 10:23:04;;;;;;;13.23;11.82;;;;;;;26.93;43.70;98606.25;4932047;28;97998;-82
2023/10/21 10:25:34;;;;;;;18.08;13.40;;;;;;;26.86;44.41;98606.22;4931929;28;96715;-81
2023/10/21 10:28:04;;;;;;;17.20;14.37;;;;;;;26.46;45.53;98616.69;4931843;28;96874;-81
2023/10/21 10:30:31;;;;;;;15.65;13.70;;;;;;;26.20;47.24;98620.00;4915587;28;101780;-81
2023/10/21 10:32:58;;;;;;;25.30;15.50;;;;;;;25.81;47.31;98613.19;4931597;28;97327;-81
2023/10/21 10:35:31;;;;;;;18.35;15.10;;;;;;;25.60;48.30;98621.22;4915706;28;96924;-81
2023/10/21 10:37:59;;;;;;;18.30;14.65;;;;;;;25.44;48.28;98601.63;4931216;28;96974;-81
2023/10/21 10:40:34;;;;;;;20.08;14.82;;;;;;;25.46;48.51;98633.69;4898383;28;99208;-81
2023/10/21 10:43:01;;;;;;;17.50;13.38;;;;;;;25.21;48.45;98612.50;4915553;28;101451;-81
2023/10/21 10:45:26;;;;;;;16.02;13.50;;;;;;;25.25;48.79;98621.03;4932271;28;96756;-81
2023/10/21 10:48:02;;;;;;;28.02;14.27;;;;;;;24.99;50.57;98640.28;4915651;28;97490;-81
2023/10/21 10:50:31;;;;;;;18.75;14.60;;;;;;;24.96;50.15;98632.56;4930537;28;101132;-81
2023/10/21 10:52:57;;;;;;;17.77;13.93;;;;;;;24.85;50.78;98648.13;4931418;28;97542;-81
2023/10/21 10:55:23;;;;;;;23.55;16.48;;;;;;;24.44;51.74;98646.88;4932078;28;96699;-82
2023/10/21 10:57:51;;;;;;;21.75;15.35;;;;;;;24.24;52.16;98635.78;4931463;28;97322;-81
2023/10/21 11:00:25;;;;;;;20.88;16.13;;;;;;;23.95;53.05;98658.78;4931085;28;98017;-81
2023/10/21 11:02:51;;;;;;;20.50;15.95;;;;;;;23.86;53.00;98662.53;4915603;28;101336;-81
2023/10/21 11:05:20;;;;;;;25.45;15.52;;;;;;;23.69;53.73;98651.06;4915846;28;96844;-81
2023/10/21 11:07:47;;;;;;;20.40;14.00;;;;;;;23.55;53.60;98649.13;4926100;28;96933;-81
2023/10/21 11:10:16;;;;;;;19.75;13.57;;;;;;;23.37;53.39;98658.25;4931060;28;98160;-81
2023/10/21 11:12:42;;;;;;;18.87;13.40;;;;;;;23.22;53.84;98676.03;4930951;28;97887;-82